createdAt,value
2018-06-20T00:01:02.104Z,88.29
2018-06-20T00:02:10.175Z,87.81
2018-06-20T00:03:18.245Z,87.81
2018-06-20T00:04:26.277Z,87.95
2018-06-20T00:05:34.368Z,88.05
2018-06-20T00:06:42.429Z,88.24
2018-06-20T00:07:50.504Z,88.05
2018-06-20T00:08:58.595Z,87.86
2018-06-20T00:10:06.624Z,88.53
2018-06-20T00:11:14.713Z,87.86
2018-06-20T00:12:22.777Z,87.86
2018-06-20T00:13:30.846Z,88.72
2018-06-20T00:14:38.920Z,88.62
2018-06-20T00:15:46.956Z,88.62
2018-06-20T00:16:55.046Z,88.15
2018-06-20T00:18:03.137Z,88.05
2018-06-20T00:19:11.174Z,88.53
2018-06-20T00:20:19.251Z,87.86
2018-06-20T00:21:27.309Z,88.43
2018-06-20T00:22:35.384Z,88.05
2018-06-20T00:23:43.424Z,87.86
2018-06-20T00:24:51.492Z,87.86
2018-06-20T00:25:59.580Z,88.05
2018-06-20T00:27:07.631Z,88.62
2018-06-20T00:28:15.688Z,88.43
2018-06-20T00:29:23.763Z,88.15
2018-06-20T00:30:31.825Z,87.86
2018-06-20T00:31:39.905Z,88.53
2018-06-20T00:32:47.958Z,88.62
2018-06-20T00:33:56.015Z,87.86
2018-06-20T00:35:04.108Z,88.34
2018-06-20T00:36:12.165Z,88.15
2018-06-20T00:37:20.232Z,88.05
2018-06-20T00:38:28.299Z,87.76
2018-06-20T00:39:36.337Z,88.53
2018-06-20T00:40:44.421Z,87.86
2018-06-20T00:41:52.496Z,87.86
2018-06-20T00:43:00.557Z,87.76
2018-06-20T00:44:08.627Z,88.05
2018-06-20T00:45:16.655Z,87.76
2018-06-20T00:46:24.760Z,88.05
2018-06-20T00:47:32.808Z,88.05
2018-06-20T00:48:40.885Z,88.05
2018-06-20T00:49:48.957Z,87.86
2018-06-20T00:50:57.018Z,88.15
2018-06-20T00:52:05.084Z,88.67
2018-06-20T00:53:13.156Z,87.86
2018-06-20T00:54:21.250Z,88.62
2018-06-20T00:55:29.285Z,88.15
2018-06-20T00:56:37.342Z,88.72
2018-06-20T00:57:45.410Z,88.00
2018-06-20T00:58:53.476Z,88.09
2018-06-20T01:00:01.551Z,88.09
2018-06-20T01:01:09.611Z,88.86
2018-06-20T01:02:17.676Z,88.24
2018-06-20T01:03:25.748Z,87.90
2018-06-20T01:04:33.823Z,87.90
2018-06-20T01:05:41.875Z,87.90
2018-06-20T01:06:49.961Z,88.09
2018-06-20T01:07:58.035Z,87.90
2018-06-20T01:09:06.051Z,87.90
2018-06-20T01:10:14.143Z,88.09
2018-06-20T01:11:22.203Z,87.90
2018-06-20T01:12:30.268Z,87.71
2018-06-20T01:13:38.329Z,88.00
2018-06-20T01:14:46.376Z,87.90
2018-06-20T01:15:54.472Z,88.09
2018-06-20T01:17:02.529Z,88.29
2018-06-20T01:18:10.614Z,87.90
2018-06-20T01:19:18.653Z,88.19
2018-06-20T01:20:26.702Z,88.00
2018-06-20T01:21:34.790Z,87.90
2018-06-20T01:22:42.859Z,88.19
2018-06-20T01:23:50.917Z,88.09
2018-06-20T01:24:58.981Z,88.29
2018-06-20T01:26:07.040Z,88.19
2018-06-20T01:27:15.126Z,88.09
2018-06-20T01:28:23.195Z,88.09
2018-06-20T01:29:31.255Z,88.29
2018-06-20T01:30:39.326Z,87.90
2018-06-20T01:31:47.376Z,88.00
2018-06-20T01:32:55.459Z,88.09
2018-06-20T01:34:03.512Z,88.00
2018-06-20T01:35:13.064Z,88.09
2018-06-20T01:36:19.651Z,88.67
2018-06-20T01:37:27.725Z,87.90
2018-06-20T01:38:35.788Z,88.09
2018-06-20T01:39:43.862Z,87.90
2018-06-20T01:40:51.919Z,87.90
2018-06-20T01:41:59.968Z,87.90
2018-06-20T01:43:08.046Z,88.67
2018-06-20T01:44:16.114Z,88.09
2018-06-20T01:45:24.187Z,88.09
2018-06-20T01:46:32.254Z,88.57
2018-06-20T01:47:40.322Z,88.86
2018-06-20T01:48:48.389Z,88.57
2018-06-20T01:49:56.428Z,88.38
2018-06-20T01:51:04.530Z,88.67
2018-06-20T01:52:12.575Z,87.90
2018-06-20T01:53:20.645Z,88.48
2018-06-20T01:54:28.728Z,88.09
2018-06-20T01:55:36.771Z,88.76
2018-06-20T01:56:44.861Z,88.09
2018-06-20T01:57:52.914Z,88.57
2018-06-20T01:59:00.992Z,88.57
2018-06-20T02:00:09.064Z,88.67
2018-06-20T02:01:17.112Z,88.38
2018-06-20T02:02:25.189Z,88.19
2018-06-20T02:03:33.251Z,88.57
2018-06-20T02:04:41.331Z,87.81
2018-06-20T02:05:49.386Z,88.00
2018-06-20T02:06:57.452Z,88.76
2018-06-20T02:08:05.521Z,88.09
2018-06-20T02:09:13.574Z,88.38
2018-06-20T02:10:21.658Z,88.76
2018-06-20T02:11:29.715Z,88.09
2018-06-20T02:12:37.781Z,88.09
2018-06-20T02:13:45.841Z,87.71
2018-06-20T02:14:53.918Z,88.00
2018-06-20T02:16:01.970Z,88.19
2018-06-20T02:17:10.048Z,88.19
2018-06-20T02:18:18.100Z,88.00
2018-06-20T02:19:26.160Z,87.81
2018-06-20T02:20:34.246Z,88.67
2018-06-20T02:21:42.309Z,88.57
2018-06-20T02:22:50.381Z,88.57
2018-06-20T02:23:58.428Z,88.48
2018-06-20T02:25:06.477Z,88.67
2018-06-20T02:26:14.776Z,88.38
2018-06-20T02:27:22.835Z,88.38
2018-06-20T02:28:30.904Z,88.86
2018-06-20T02:29:38.977Z,88.48
2018-06-20T02:30:47.042Z,88.38
2018-06-20T02:31:55.108Z,88.76
2018-06-20T02:33:03.173Z,89.05
2018-06-20T02:34:11.234Z,88.67
2018-06-20T02:35:19.298Z,88.38
2018-06-20T02:36:27.362Z,88.29
2018-06-20T02:37:35.450Z,88.57
2018-06-20T02:38:43.534Z,88.48
2018-06-20T02:39:51.568Z,88.53
2018-06-20T02:40:59.635Z,88.67
2018-06-20T02:42:07.701Z,88.57
2018-06-20T02:43:15.790Z,88.34
2018-06-20T02:44:23.843Z,88.53
2018-06-20T02:45:31.912Z,88.72
2018-06-20T02:46:39.956Z,88.34
2018-06-20T02:47:48.017Z,88.34
2018-06-20T02:48:56.066Z,88.81
2018-06-20T02:50:04.175Z,88.34
2018-06-20T02:51:12.221Z,88.43
2018-06-20T02:52:20.283Z,88.43
2018-06-20T02:53:28.354Z,88.43
2018-06-20T02:54:36.398Z,88.15
2018-06-20T02:55:44.488Z,88.34
2018-06-20T02:56:52.551Z,88.34
2018-06-20T02:58:00.621Z,88.34
2018-06-20T02:59:08.684Z,88.72
2018-06-20T03:00:16.735Z,88.43
2018-06-20T03:01:24.806Z,88.34
2018-06-20T03:02:32.885Z,88.34
2018-06-20T03:03:40.943Z,88.34
2018-06-20T03:04:49.016Z,88.34
2018-06-20T03:05:57.074Z,88.53
2018-06-20T03:07:05.158Z,88.43
2018-06-20T03:08:13.202Z,88.43
2018-06-20T03:09:21.272Z,88.62
2018-06-20T03:10:29.343Z,88.53
2018-06-20T03:11:37.399Z,88.34
2018-06-20T03:12:45.479Z,88.24
2018-06-20T03:13:53.556Z,88.34
2018-06-20T03:15:01.610Z,88.34
2018-06-20T03:16:09.664Z,88.34
2018-06-20T03:17:17.744Z,88.34
2018-06-20T03:18:25.817Z,88.53
2018-06-20T03:19:33.879Z,88.43
2018-06-20T03:20:41.941Z,88.62
2018-06-20T03:21:50.007Z,88.43
2018-06-20T03:22:58.076Z,88.53
2018-06-20T03:24:06.129Z,88.72
2018-06-20T03:25:14.211Z,88.34
2018-06-20T03:26:22.262Z,88.34
2018-06-20T03:27:30.329Z,88.15
2018-06-20T03:28:38.407Z,88.34
2018-06-20T03:29:46.445Z,88.34
2018-06-20T03:30:54.541Z,88.34
2018-06-20T03:32:02.624Z,88.53
2018-06-20T03:33:10.664Z,88.34
2018-06-20T03:34:18.729Z,88.53
2018-06-20T03:35:26.778Z,88.34
2018-06-20T03:36:34.865Z,88.43
2018-06-20T03:37:42.924Z,88.43
2018-06-20T03:38:51.001Z,88.62
2018-06-20T03:39:59.065Z,88.53
2018-06-20T03:41:07.122Z,88.34
2018-06-20T03:42:15.196Z,88.72
2018-06-20T03:43:23.256Z,88.62
2018-06-20T03:44:31.334Z,88.34
2018-06-20T03:45:39.395Z,88.62
2018-06-20T03:46:47.464Z,88.43
2018-06-20T03:47:55.530Z,88.34
2018-06-20T03:49:03.600Z,88.72
2018-06-20T03:50:11.659Z,88.53
2018-06-20T03:51:19.738Z,88.43
2018-06-20T03:52:27.798Z,88.34
2018-06-20T03:53:37.343Z,88.34
2018-06-20T03:54:43.912Z,88.34
2018-06-20T03:55:51.990Z,88.62
2018-06-20T03:57:00.067Z,88.34
2018-06-20T03:58:08.118Z,88.53
2018-06-20T03:59:16.190Z,88.62
2018-06-20T04:00:24.271Z,88.43
2018-06-20T04:01:32.316Z,88.34
2018-06-20T04:02:40.386Z,88.53
2018-06-20T04:03:48.462Z,88.34
2018-06-20T04:04:56.491Z,88.34
2018-06-20T04:06:04.609Z,88.34
2018-06-20T04:07:12.663Z,88.72
2018-06-20T04:08:20.732Z,88.29
2018-06-20T04:09:28.781Z,88.34
2018-06-20T04:10:36.837Z,88.81
2018-06-20T04:11:44.909Z,88.38
2018-06-20T04:12:52.985Z,88.76
2018-06-20T04:14:01.054Z,88.76
2018-06-20T04:15:09.156Z,88.76
2018-06-20T04:16:17.220Z,88.76
2018-06-20T04:17:25.307Z,88.57
2018-06-20T04:18:33.347Z,88.48
2018-06-20T04:19:41.447Z,88.38
2018-06-20T04:20:49.470Z,88.38
2018-06-20T04:21:57.552Z,88.76
2018-06-20T04:23:05.618Z,88.57
2018-06-20T04:24:13.681Z,88.57
2018-06-20T04:25:21.746Z,88.57
2018-06-20T04:26:29.806Z,88.57
2018-06-20T04:27:39.791Z,88.57
2018-06-20T04:28:45.934Z,88.48
2018-06-20T04:29:54.426Z,88.57
2018-06-20T04:31:02.106Z,88.48
2018-06-20T04:32:10.144Z,88.38
2018-06-20T04:33:18.211Z,88.38
2018-06-20T04:34:26.494Z,88.57
2018-06-20T04:35:34.357Z,88.48
2018-06-20T04:36:42.421Z,88.76
2018-06-20T04:37:51.103Z,88.57
2018-06-20T04:38:58.541Z,88.38
2018-06-20T04:40:06.582Z,88.48
2018-06-20T04:41:14.677Z,88.57
2018-06-20T04:42:22.771Z,88.38
2018-06-20T04:43:30.811Z,88.38
2018-06-20T04:44:38.940Z,88.48
2018-06-20T04:45:46.932Z,88.57
2018-06-20T04:46:55.004Z,88.57
2018-06-20T04:48:03.084Z,88.48
2018-06-20T04:49:11.167Z,88.52
2018-06-20T04:50:19.416Z,88.43
2018-06-20T04:51:27.304Z,88.23
2018-06-20T04:52:35.682Z,88.23
2018-06-20T04:53:43.426Z,88.23
2018-06-20T04:54:51.479Z,88.62
2018-06-20T04:55:59.552Z,88.04
2018-06-20T04:57:07.609Z,88.52
2018-06-20T04:58:15.672Z,88.43
2018-06-20T04:59:23.974Z,88.81
2018-06-20T05:00:31.821Z,87.95
2018-06-20T05:01:39.888Z,88.81
2018-06-20T05:02:47.958Z,88.43
2018-06-20T05:03:56.015Z,88.37
2018-06-20T05:05:04.097Z,88.47
2018-06-20T05:06:12.149Z,88.66
2018-06-20T05:07:20.212Z,88.37
2018-06-20T05:08:28.765Z,88.18
2018-06-20T05:09:36.341Z,88.03
2018-06-20T05:10:44.423Z,87.50
2018-06-20T05:11:52.507Z,87.35
2018-06-20T05:13:01.043Z,87.50
2018-06-20T05:14:08.632Z,87.26
2018-06-20T05:15:16.684Z,87.70
2018-06-20T05:16:24.839Z,86.78
2018-06-20T05:17:32.860Z,87.07
2018-06-20T05:18:40.904Z,86.97
2018-06-20T05:19:48.995Z,86.68
2018-06-20T05:20:57.034Z,86.88
2018-06-20T05:22:05.108Z,87.26
2018-06-20T05:23:13.159Z,87.45
2018-06-20T05:24:21.236Z,87.45
2018-06-20T05:25:29.292Z,87.07
2018-06-20T05:27:51.922Z,87.50
2018-06-20T05:28:59.943Z,87.45
2018-06-20T05:31:27.085Z,87.45
2018-06-20T05:32:35.065Z,88.31
2018-06-20T05:33:43.133Z,87.07
2018-06-20T05:34:51.191Z,87.84
2018-06-20T05:35:59.266Z,87.07
2018-06-20T05:37:07.323Z,87.93
2018-06-20T05:38:15.407Z,87.55
2018-06-20T05:39:23.476Z,88.31
2018-06-20T05:40:31.517Z,87.93
2018-06-20T05:41:39.598Z,87.16
2018-06-20T05:42:47.667Z,87.07
2018-06-20T05:43:55.730Z,87.49
2018-06-20T05:45:03.826Z,87.49
2018-06-20T05:46:11.867Z,87.30
2018-06-20T05:47:19.940Z,86.82
2018-06-20T05:48:40.796Z,86.63
2018-06-20T05:49:36.056Z,86.15
2018-06-20T05:50:44.150Z,86.15
2018-06-20T05:51:52.208Z,86.44
2018-06-20T05:53:00.268Z,86.54
2018-06-20T05:54:08.395Z,85.28
2018-06-20T05:55:16.405Z,85.77
2018-06-20T05:56:24.473Z,85.42
2018-06-20T05:57:32.552Z,85.71
2018-06-20T05:58:40.608Z,85.91
2018-06-20T05:59:48.680Z,85.62
2018-06-20T06:00:57.962Z,85.33
2018-06-20T06:02:06.009Z,86.00
2018-06-20T06:03:14.105Z,85.71
2018-06-20T06:04:22.166Z,85.14
2018-06-20T06:05:30.284Z,84.75
2018-06-20T06:06:38.292Z,84.75
2018-06-20T06:07:46.339Z,84.51
2018-06-20T06:08:54.436Z,85.47
2018-06-20T06:10:05.575Z,84.22
2018-06-20T06:11:10.578Z,84.99
2018-06-20T06:12:18.653Z,83.64
2018-06-20T06:13:26.683Z,82.68
2018-06-20T06:14:34.837Z,83.16
2018-06-20T06:15:42.836Z,83.74
2018-06-20T06:16:50.935Z,84.41
2018-06-20T06:17:58.977Z,83.54
2018-06-20T06:19:10.475Z,83.16
2018-06-20T06:20:18.535Z,83.07
2018-06-20T06:21:26.584Z,83.84
2018-06-20T06:22:34.661Z,83.59
2018-06-20T06:23:44.167Z,83.36
2018-06-20T06:24:50.811Z,83.49
2018-06-20T06:25:58.883Z,84.22
2018-06-20T06:27:06.941Z,84.74
2018-06-20T06:28:15.017Z,83.97
2018-06-20T06:29:23.090Z,82.73
2018-06-20T06:30:31.196Z,83.59
2018-06-20T06:32:57.816Z,83.69
2018-06-20T06:34:03.822Z,83.30
2018-06-20T06:35:11.894Z,83.87
2018-06-20T06:36:19.970Z,83.78
2018-06-20T06:37:28.055Z,84.84
2018-06-20T06:38:36.213Z,84.17
2018-06-20T06:39:46.884Z,83.30
2018-06-20T06:40:54.869Z,83.01
2018-06-20T06:42:02.923Z,83.49
2018-06-20T06:43:13.227Z,84.26
2018-06-20T06:44:21.279Z,83.59
2018-06-20T06:45:29.346Z,83.30
2018-06-20T06:46:37.415Z,83.87
2018-06-20T06:47:45.490Z,83.25
2018-06-20T06:48:53.556Z,83.49
2018-06-20T06:51:14.942Z,83.63
2018-06-20T06:52:23.040Z,83.44
2018-06-20T06:53:31.070Z,84.01
2018-06-20T06:54:39.151Z,82.96
2018-06-20T06:55:48.837Z,83.34
2018-06-20T06:56:56.268Z,83.73
2018-06-20T06:58:04.362Z,83.63
2018-06-20T06:59:12.419Z,83.44
2018-06-20T07:00:22.345Z,82.57
2018-06-20T07:01:29.553Z,81.27
2018-06-20T07:02:37.639Z,81.75
2018-06-20T07:03:45.687Z,81.56
2018-06-20T07:04:54.762Z,80.54
2018-06-20T07:06:02.819Z,79.00
2018-06-20T07:07:12.520Z,79.33
2018-06-20T07:08:19.990Z,77.50
2018-06-20T07:09:28.035Z,75.51
2018-06-20T07:10:36.102Z,74.10
2018-06-20T07:11:44.180Z,72.44
2018-06-20T07:12:53.471Z,72.09
2018-06-20T07:14:01.544Z,70.90
2018-06-20T07:15:09.614Z,70.84
2018-06-20T07:16:17.675Z,70.43
2018-06-20T07:17:25.756Z,69.66
2018-06-20T07:18:35.654Z,68.43
2018-06-20T07:19:43.713Z,68.33
2018-06-20T07:20:51.788Z,67.56
2018-06-20T07:21:59.876Z,65.85
2018-06-20T07:23:07.946Z,63.24
2018-06-20T07:24:16.136Z,65.30
2018-06-20T07:25:26.314Z,61.98
2018-06-20T07:26:34.402Z,64.11
2018-06-20T07:27:42.466Z,63.92
2018-06-20T07:28:50.579Z,61.88
2018-06-20T07:29:58.662Z,62.20
2018-06-20T07:31:06.717Z,62.43
2018-06-20T07:32:14.769Z,62.33
2018-06-20T07:33:23.666Z,61.00
2018-06-20T07:34:31.591Z,59.36
2018-06-20T07:35:39.757Z,57.73
2018-06-20T07:36:47.698Z,55.53
2018-06-20T07:37:55.776Z,54.32
2018-06-20T07:39:06.451Z,54.83
2018-06-20T07:40:14.592Z,52.84
2018-06-20T07:41:22.649Z,49.46
2018-06-20T07:42:30.713Z,50.14
2018-06-20T07:43:38.785Z,52.50
2018-06-20T07:44:46.844Z,48.32
2018-06-20T07:45:54.958Z,47.75
2018-06-20T07:47:03.030Z,49.68
2018-06-20T07:48:11.124Z,47.25
2018-06-20T07:49:19.204Z,46.39
2018-06-20T07:50:27.278Z,49.99
2018-06-20T07:51:35.358Z,47.00
2018-06-20T07:52:43.441Z,47.39
2018-06-20T07:53:51.510Z,48.39
2018-06-20T07:54:59.608Z,47.44
2018-06-20T07:56:07.699Z,47.67
2018-06-20T07:57:15.778Z,43.96
2018-06-20T07:58:23.864Z,41.83
2018-06-20T07:59:31.933Z,43.79
2018-06-20T08:00:40.077Z,42.03
2018-06-20T08:01:48.098Z,43.08
2018-06-20T08:02:56.184Z,42.81
2018-06-20T08:04:04.285Z,44.74
2018-06-20T08:05:12.357Z,46.11
2018-06-20T08:06:20.483Z,44.74
2018-06-20T08:07:28.533Z,41.05
2018-06-20T08:08:36.614Z,42.54
2018-06-20T08:09:44.690Z,40.27
2018-06-20T08:10:52.789Z,42.81
2018-06-20T08:12:00.858Z,43.01
2018-06-20T08:13:08.964Z,40.56
2018-06-20T08:14:17.027Z,40.74
2018-06-20T08:15:25.116Z,42.40
2018-06-20T08:16:33.199Z,41.03
2018-06-20T08:17:41.285Z,41.15
2018-06-20T08:18:49.402Z,39.69
2018-06-20T08:19:57.454Z,43.10
2018-06-20T08:21:05.538Z,41.74
2018-06-20T08:22:13.634Z,39.10
2018-06-20T08:23:21.710Z,40.70
2018-06-20T08:24:29.799Z,39.23
2018-06-20T08:25:37.928Z,38.08
2018-06-20T08:26:45.962Z,36.53
2018-06-20T08:27:54.061Z,36.43
2018-06-20T08:29:02.151Z,36.80
2018-06-20T08:30:10.231Z,37.51
2018-06-20T08:31:18.316Z,39.80
2018-06-20T08:32:26.390Z,38.34
2018-06-20T08:33:34.484Z,40.08
2018-06-20T08:34:42.571Z,39.10
2018-06-20T08:35:50.660Z,39.10
2018-06-20T08:36:58.726Z,40.17
2018-06-20T08:38:06.798Z,41.76
2018-06-20T08:39:14.913Z,40.70
2018-06-20T08:40:23.000Z,39.92
2018-06-20T08:41:31.116Z,38.45
2018-06-20T08:42:39.175Z,36.79
2018-06-20T08:43:47.265Z,37.19
2018-06-20T08:44:55.334Z,36.51
2018-06-20T08:46:03.430Z,37.37
2018-06-20T08:47:11.523Z,38.35
2018-06-20T08:48:19.618Z,39.62
2018-06-20T08:49:27.678Z,42.56
2018-06-20T08:50:35.767Z,42.46
2018-06-20T08:51:43.856Z,40.43
2018-06-20T08:52:51.956Z,41.02
2018-06-20T08:54:00.043Z,37.21
2018-06-20T08:55:08.116Z,36.88
2018-06-20T08:56:16.181Z,37.73
2018-06-20T08:57:24.300Z,41.91
2018-06-20T08:58:32.382Z,42.21
2018-06-20T08:59:40.455Z,42.40
2018-06-20T09:00:48.551Z,38.81
2018-06-20T09:01:56.620Z,38.89
2018-06-20T09:03:04.736Z,38.90
2018-06-20T09:04:12.822Z,38.90
2018-06-20T09:05:20.919Z,40.66
2018-06-20T09:06:28.988Z,38.02
2018-06-20T09:07:37.077Z,37.95
2018-06-20T09:08:45.292Z,40.45
2018-06-20T09:09:53.246Z,36.94
2018-06-20T09:11:01.327Z,40.17
2018-06-20T09:12:09.421Z,38.79
2018-06-20T09:13:17.516Z,41.64
2018-06-20T09:14:25.642Z,41.44
2018-06-20T09:15:33.679Z,38.49
2018-06-20T09:16:41.775Z,39.20
2018-06-20T09:17:49.847Z,41.25
2018-06-20T09:18:57.930Z,39.59
2018-06-20T09:20:06.013Z,39.20
2018-06-20T09:21:14.104Z,38.02
2018-06-20T09:22:22.205Z,40.95
2018-06-20T09:23:30.315Z,41.36
2018-06-20T09:24:38.375Z,41.17
2018-06-20T09:25:46.432Z,37.43
2018-06-20T09:26:54.548Z,39.08
2018-06-20T09:28:02.633Z,41.99
2018-06-20T09:29:10.718Z,40.41
2018-06-20T09:30:18.791Z,41.83
2018-06-20T09:31:26.862Z,43.85
2018-06-20T09:32:34.971Z,43.71
2018-06-20T09:33:43.039Z,47.59
2018-06-20T09:34:51.131Z,49.63
2018-06-20T09:35:59.234Z,46.98
2018-06-20T09:37:07.310Z,49.12
2018-06-20T09:38:15.387Z,46.69
2018-06-20T09:39:23.463Z,51.33
2018-06-20T09:40:31.551Z,46.77
2018-06-20T09:41:39.628Z,46.08
2018-06-20T09:42:47.704Z,50.04
2018-06-20T09:43:55.782Z,51.50
2018-06-20T09:45:03.873Z,50.53
2018-06-20T09:46:11.946Z,47.13
2018-06-20T09:47:20.023Z,50.99
2018-06-20T09:48:28.096Z,54.29
2018-06-20T09:49:36.168Z,52.06
2018-06-20T09:50:44.296Z,52.25
2018-06-20T09:51:52.347Z,50.89
2018-06-20T09:53:00.428Z,48.66
2018-06-20T09:54:08.496Z,49.54
2018-06-20T09:55:16.564Z,50.58
2018-06-20T09:56:24.656Z,56.50
2018-06-20T09:57:32.734Z,55.33
2018-06-20T09:58:40.818Z,50.77
2018-06-20T09:59:48.888Z,49.12
2018-06-20T10:00:56.945Z,47.38
2018-06-20T10:02:05.043Z,50.84
2018-06-20T10:03:13.115Z,49.87
2018-06-20T10:04:21.192Z,53.05
2018-06-20T10:05:29.280Z,49.29
2018-06-20T10:06:37.345Z,53.08
2018-06-20T10:07:45.417Z,54.63
2018-06-20T10:08:53.508Z,55.50
2018-06-20T10:10:01.572Z,49.99
2018-06-20T10:11:09.717Z,52.23
2018-06-20T10:12:17.732Z,54.46
2018-06-20T10:13:25.796Z,50.58
2018-06-20T10:14:33.875Z,52.33
2018-06-20T10:15:41.959Z,56.70
2018-06-20T10:16:50.011Z,57.18
2018-06-20T10:17:58.120Z,56.40
2018-06-20T10:19:06.156Z,56.30
2018-06-20T10:20:14.323Z,58.47
2018-06-20T10:21:22.369Z,54.00
2018-06-20T10:22:30.413Z,55.36
2018-06-20T10:23:38.473Z,52.45
2018-06-20T10:24:46.528Z,52.45
2018-06-20T10:25:54.642Z,48.95
2018-06-20T10:27:03.010Z,52.15
2018-06-20T10:28:10.774Z,56.50
2018-06-20T10:29:18.854Z,56.52
2018-06-20T10:30:26.976Z,52.15
2018-06-20T10:31:35.010Z,56.62
2018-06-20T10:32:43.076Z,55.65
2018-06-20T10:33:51.146Z,54.46
2018-06-20T10:34:59.237Z,56.62
2018-06-20T10:36:07.321Z,52.64
2018-06-20T10:37:15.383Z,49.92
2018-06-20T10:38:23.452Z,51.26
2018-06-20T10:39:31.535Z,51.53
2018-06-20T10:40:39.626Z,49.77
2018-06-20T10:41:47.675Z,51.81
2018-06-20T10:42:55.746Z,53.17
2018-06-20T10:44:03.831Z,56.96
2018-06-20T10:45:11.907Z,58.12
2018-06-20T10:46:20.236Z,59.19
2018-06-20T10:47:28.061Z,55.14
2018-06-20T10:48:36.125Z,54.56
2018-06-20T10:49:44.202Z,52.72
2018-06-20T10:50:52.293Z,55.17
2018-06-20T10:52:00.362Z,49.24
2018-06-20T10:53:08.436Z,51.57
2018-06-20T10:54:16.484Z,52.64
2018-06-20T10:55:24.592Z,54.00
2018-06-20T10:56:32.663Z,54.88
2018-06-20T10:57:40.732Z,51.67
2018-06-20T10:58:48.807Z,50.31
2018-06-20T10:59:56.857Z,55.39
2018-06-20T11:01:04.971Z,51.99
2018-06-20T11:02:13.028Z,50.43
2018-06-20T11:03:21.100Z,47.91
2018-06-20T11:04:29.182Z,49.44
2018-06-20T11:05:37.243Z,51.45
2018-06-20T11:06:45.330Z,49.90
2018-06-20T11:07:53.408Z,50.87
2018-06-20T11:09:01.481Z,53.97
2018-06-20T11:10:09.552Z,55.43
2018-06-20T11:11:17.637Z,56.92
2018-06-20T11:12:25.696Z,54.97
2018-06-20T11:13:33.769Z,56.92
2018-06-20T11:14:41.849Z,57.04
2018-06-20T11:15:49.925Z,56.65
2018-06-20T11:16:58.001Z,53.25
2018-06-20T11:18:06.060Z,54.90
2018-06-20T11:19:14.151Z,53.28
2018-06-20T11:20:22.227Z,56.49
2018-06-20T11:21:30.285Z,54.05
2018-06-20T11:22:38.363Z,49.97
2018-06-20T11:23:46.423Z,49.39
2018-06-20T11:24:54.526Z,55.51
2018-06-20T11:26:02.615Z,51.33
2018-06-20T11:27:10.679Z,49.76
2018-06-20T11:28:18.751Z,51.82
2018-06-20T11:29:26.805Z,50.85
2018-06-20T11:30:34.896Z,53.77
2018-06-20T11:31:42.971Z,53.38
2018-06-20T11:32:51.031Z,52.11
2018-06-20T11:33:59.159Z,46.86
2018-06-20T11:35:07.189Z,46.45
2018-06-20T11:36:15.257Z,50.34
2018-06-20T11:37:23.347Z,51.79
2018-06-20T11:38:31.420Z,53.74
2018-06-20T11:39:39.500Z,51.89
2018-06-20T11:40:47.568Z,51.62
2018-06-20T11:41:55.639Z,52.59
2018-06-20T11:43:03.724Z,54.15
2018-06-20T11:44:11.784Z,51.04
2018-06-20T11:45:19.870Z,52.69
2018-06-20T11:46:27.954Z,52.40
2018-06-20T11:47:35.995Z,54.35
2018-06-20T11:48:44.093Z,54.93
2018-06-20T11:49:52.199Z,52.59
2018-06-20T11:51:00.239Z,50.68
2018-06-20T11:52:08.306Z,50.16
2018-06-20T11:53:16.362Z,48.15
2018-06-20T11:54:24.469Z,47.96
2018-06-20T11:55:32.542Z,44.84
2018-06-20T11:56:40.610Z,49.29
2018-06-20T11:57:48.700Z,46.57
2018-06-20T11:58:56.740Z,52.01
2018-06-20T12:00:04.836Z,48.03
2018-06-20T12:01:12.906Z,54.25
2018-06-20T12:02:20.988Z,54.15
2018-06-20T12:03:29.059Z,54.25
2018-06-20T12:04:37.122Z,46.86
2018-06-20T12:05:45.206Z,44.82
2018-06-20T12:06:53.283Z,52.01
2018-06-20T12:08:01.370Z,48.71
2018-06-20T12:09:09.423Z,48.71
2018-06-20T12:10:17.509Z,46.18
2018-06-20T12:11:25.575Z,46.18
2018-06-20T12:12:33.649Z,48.90
2018-06-20T12:13:41.822Z,47.34
2018-06-20T12:14:49.815Z,50.56
2018-06-20T12:15:57.888Z,50.56
2018-06-20T12:17:05.943Z,47.64
2018-06-20T12:18:14.022Z,47.15
2018-06-20T12:19:22.117Z,48.32
2018-06-20T12:20:30.179Z,46.08
2018-06-20T12:21:38.258Z,46.86
2018-06-20T12:22:46.301Z,48.03
2018-06-20T12:23:54.415Z,44.72
2018-06-20T12:25:02.481Z,44.92
2018-06-20T12:26:10.553Z,45.11
2018-06-20T12:27:18.621Z,47.25
2018-06-20T12:28:26.687Z,48.80
2018-06-20T12:29:34.819Z,50.16
2018-06-20T12:30:42.847Z,50.16
2018-06-20T12:31:50.930Z,50.26
2018-06-20T12:32:59.017Z,44.92
2018-06-20T12:34:07.080Z,44.43
2018-06-20T12:35:15.154Z,47.05
2018-06-20T12:36:23.224Z,51.04
2018-06-20T12:37:31.291Z,51.33
2018-06-20T12:38:39.387Z,47.83
2018-06-20T12:39:47.447Z,46.67
2018-06-20T12:40:55.556Z,49.10
2018-06-20T12:42:03.609Z,50.16
2018-06-20T12:43:11.686Z,47.56
2018-06-20T12:44:19.746Z,47.05
2018-06-20T12:45:27.818Z,48.22
2018-06-20T12:46:35.904Z,47.93
2018-06-20T12:47:43.973Z,49.68
2018-06-20T12:48:52.059Z,48.71
2018-06-20T12:50:00.119Z,48.90
2018-06-20T12:51:08.208Z,51.55
2018-06-20T12:52:16.244Z,51.65
2018-06-20T12:53:24.386Z,45.42
2018-06-20T12:54:32.419Z,48.93
2018-06-20T12:55:40.510Z,51.07
2018-06-20T12:56:48.571Z,53.30
2018-06-20T12:57:56.631Z,47.86
2018-06-20T12:59:04.714Z,50.38
2018-06-20T13:00:12.796Z,53.59
2018-06-20T13:01:20.876Z,52.33
2018-06-20T13:02:28.952Z,51.36
2018-06-20T13:03:37.012Z,54.66
2018-06-20T13:04:45.092Z,50.58
2018-06-20T13:05:53.171Z,53.79
2018-06-20T13:07:01.241Z,53.20
2018-06-20T13:08:09.311Z,52.72
2018-06-20T13:09:17.397Z,55.25
2018-06-20T13:10:25.476Z,52.23
2018-06-20T13:11:33.573Z,52.14
2018-06-20T13:12:41.616Z,54.18
2018-06-20T13:13:49.696Z,47.17
2018-06-20T13:14:57.780Z,46.88
2018-06-20T13:16:05.836Z,45.62
2018-06-20T13:17:13.921Z,49.32
2018-06-20T13:18:21.994Z,48.05
2018-06-20T13:19:30.061Z,44.55
2018-06-20T13:20:38.128Z,48.25
2018-06-20T13:21:46.213Z,47.08
2018-06-20T13:22:54.278Z,49.80
2018-06-20T13:24:02.371Z,49.49
2018-06-20T13:25:10.442Z,50.16
2018-06-20T13:26:18.516Z,44.26
2018-06-20T13:27:26.563Z,49.97
2018-06-20T13:28:34.677Z,47.83
2018-06-20T13:29:42.725Z,48.03
2018-06-20T13:30:50.810Z,49.87
2018-06-20T13:31:58.886Z,49.99
2018-06-20T13:33:06.945Z,48.34
2018-06-20T13:34:15.016Z,41.42
2018-06-20T13:35:23.116Z,41.71
2018-06-20T13:36:31.185Z,43.46
2018-06-20T13:37:39.265Z,51.14
2018-06-20T13:38:47.337Z,53.47
2018-06-20T13:39:55.483Z,48.03
2018-06-20T13:41:03.491Z,50.07
2018-06-20T13:42:11.558Z,50.46
2018-06-20T13:43:19.628Z,49.10
2018-06-20T13:44:27.717Z,50.16
2018-06-20T13:45:35.786Z,48.71
2018-06-20T13:46:43.863Z,46.18
2018-06-20T13:47:51.925Z,48.32
2018-06-20T13:49:00.018Z,46.18
2018-06-20T13:50:08.075Z,43.36
2018-06-20T13:51:16.141Z,40.93
2018-06-20T13:52:24.224Z,41.51
2018-06-20T13:53:32.316Z,41.51
2018-06-20T13:54:40.385Z,44.33
2018-06-20T13:55:48.447Z,48.51
2018-06-20T13:56:56.498Z,45.21
2018-06-20T13:58:04.611Z,42.58
2018-06-20T13:59:12.712Z,46.18
2018-06-20T14:00:20.749Z,47.15
2018-06-20T14:01:28.813Z,49.29
2018-06-20T14:02:36.873Z,48.71
2018-06-20T14:03:44.986Z,48.22
2018-06-20T14:04:53.041Z,51.92
2018-06-20T14:06:01.114Z,47.64
2018-06-20T14:07:09.197Z,48.03
2018-06-20T14:08:17.260Z,46.96
2018-06-20T14:09:25.344Z,43.36
2018-06-20T14:10:33.430Z,43.16
2018-06-20T14:11:41.489Z,46.96
2018-06-20T14:12:49.572Z,49.78
2018-06-20T14:13:57.643Z,50.75
2018-06-20T14:15:05.710Z,49.29
2018-06-20T14:16:13.799Z,46.37
2018-06-20T14:17:21.857Z,45.50
2018-06-20T14:18:29.945Z,46.96
2018-06-20T14:19:38.026Z,47.05
2018-06-20T14:20:46.067Z,45.89
2018-06-20T14:21:54.162Z,46.77
2018-06-20T14:23:02.230Z,47.05
2018-06-20T14:24:10.313Z,44.72
2018-06-20T14:25:18.374Z,45.21
2018-06-20T14:26:26.445Z,44.92
2018-06-20T14:27:34.533Z,45.11
2018-06-20T14:28:42.646Z,45.50
2018-06-20T14:29:50.665Z,48.61
2018-06-20T14:30:58.750Z,47.34
2018-06-20T14:32:06.797Z,45.31
2018-06-20T14:33:14.890Z,47.93
2018-06-20T14:34:22.974Z,46.77
2018-06-20T14:35:31.044Z,48.80
2018-06-20T14:36:39.132Z,49.10
2018-06-20T14:37:47.209Z,51.92
2018-06-20T14:38:55.369Z,47.64
2018-06-20T14:40:03.348Z,49.00
2018-06-20T14:41:11.425Z,45.60
2018-06-20T14:42:19.500Z,48.80